Key West, FL

23:06 EST le 31 janvier 2015 (GMT -0500)
Big Coppitt Key Gulfside | Change Station
CLOSE
Current Station
Stations météorologiques personnelles
Location: Key West, FL
Altitude: 31 ft
Stations météo à proximité

Alt. 31 ft 24.60 °N, 81.67 °W | Updated 4 minutes ago

Partiellement nuageux
Partiellement nuageux
66.0 ° F
Paraît 66.0 ° F
N
6.8
Vent Variable Vent de ENE

Aujourd'hui
Haut(e) -- | Bas -- ° F
--% Risque de précip.
Hier
Haut(e) -- | Bas -- ° F
Precip. -- pouce
7:09 AM 6:11 PM
Lune gibbeuse croissante, 93% visible
Pression 30.19 pouce
Visibilité 10.0 Miles terrestres
Nuages Ciel dégagé
Point de rosée 61 ° F
Humidité 85%
Précipitations 0.00 pouce
Profondeur de la couche neigeuse Non disponible.
UV 0 sur 12
Pollen 7.60 sur 12
Qualité de l'air Non disponible.
Flu Activity Non disponible.
METAR KNQX 010353Z AUTO 05008KT 10SM CLR 19/14 A3020 RMK AO2 SLP224 T01890144 $

More Conditions Fewer Conditions

Pression 30.19 pouce
Visibilité 10.0 Miles terrestres
Nuages Ciel dégagé
Point de rosée 61 ° F
Humidité 85%
Précipitations 0.00 pouce
Profondeur de la couche neigeuse Non disponible.
UV 0 sur 12
Pollen 7.60 sur 12
Qualité de l'air Non disponible.
Flu Activity Non disponible.
METAR KNQX 010353Z AUTO 05008KT 10SM CLR 19/14 A3020 RMK AO2 SLP224 T01890144 $

More Conditions Fewer Conditions

10-Day Weather Forecast

Almanac

Astronomie

Jan. 31, 2015 Lever Coucher
Temps réel
Crépuscule civil
Crépuscule nautique
Crépuscule astronomique
Lune
Durée de lumière visible
Longueur du jour
Tomorrow will be .
, % of the Moon is Illuminated

Extrêmes aujourd'hui

State Highs State Lows

Community

WunderPhotos

Upload Photos

1,792,300 Photos téléchargées !

WunderBlogs® & News

Nearby

Qualité de l'air

  Qualité de l'air Indice de la qualité de l'air Polluant
Not available.

Épaisseur de neige

Station Depth Altitude

Activité sismique

Ville Distance Mag. Time & Date
Minimum magnitude displayed is 2.5.

Températures des eaux côtières

Lieu Température

Stations météo à proximité